createdAt,value
2018-11-03T00:00:04.562Z,1029.4
2018-11-03T00:01:04.895Z,1029.41
2018-11-03T00:02:04.514Z,1029.38
2018-11-03T00:03:04.577Z,1029.4
2018-11-03T00:04:04.531Z,1029.38
2018-11-03T00:05:04.555Z,1029.38
2018-11-03T00:06:04.625Z,1029.39
2018-11-03T00:07:04.530Z,1029.39
2018-11-03T00:08:04.516Z,1029.39
2018-11-03T00:09:04.519Z,1029.43
2018-11-03T00:10:04.550Z,1029.47
2018-11-03T00:11:04.519Z,1029.47
2018-11-03T00:12:04.513Z,1029.48
2018-11-03T00:13:04.552Z,1029.51
2018-11-03T00:14:04.541Z,1029.55
2018-11-03T00:15:04.604Z,1029.48
2018-11-03T00:16:05.139Z,1029.5
2018-11-03T00:17:04.572Z,1029.44
2018-11-03T00:18:04.712Z,1029.49
2018-11-03T00:19:04.531Z,1029.49
2018-11-03T00:20:04.648Z,1029.48
2018-11-03T00:21:04.714Z,1029.52
2018-11-03T00:22:04.546Z,1029.53
2018-11-03T00:23:04.524Z,1029.49
2018-11-03T00:24:04.920Z,1029.55
2018-11-03T00:25:04.522Z,1029.51
2018-11-03T00:26:04.547Z,1029.49
2018-11-03T00:27:04.550Z,1029.48
2018-11-03T00:28:04.519Z,1029.5
2018-11-03T00:29:04.578Z,1029.48
2018-11-03T00:30:04.761Z,1029.46
2018-11-03T00:31:04.888Z,1029.45
2018-11-03T00:32:04.571Z,1029.44
2018-11-03T00:33:04.892Z,1029.44
2018-11-03T00:34:04.576Z,1029.42
2018-11-03T00:35:04.518Z,1029.41
2018-11-03T00:36:04.829Z,1029.46
2018-11-03T00:37:04.584Z,1029.43
2018-11-03T00:38:04.542Z,1029.42
2018-11-03T00:39:04.517Z,1029.44
2018-11-03T00:40:05.071Z,1029.47
2018-11-03T00:41:04.519Z,1029.47
2018-11-03T00:42:04.520Z,1029.4
2018-11-03T00:43:04.603Z,1029.41
2018-11-03T00:44:04.630Z,1029.38
2018-11-03T00:45:04.731Z,1029.42
2018-11-03T00:46:04.560Z,1029.48
2018-11-03T00:47:04.507Z,1029.44
2018-11-03T00:48:05.339Z,1029.51
2018-11-03T00:49:04.528Z,1029.54
2018-11-03T00:50:04.567Z,1029.57
2018-11-03T00:51:04.567Z,1029.55
2018-11-03T00:52:04.611Z,1029.58
2018-11-03T00:53:04.594Z,1029.52
2018-11-03T00:54:05.310Z,1029.51
2018-11-03T00:55:04.466Z,1029.48
2018-11-03T00:56:05.211Z,1029.51
2018-11-03T00:57:04.512Z,1029.44
2018-11-03T00:58:04.511Z,1029.46
2018-11-03T00:59:04.475Z,1029.5
2018-11-03T01:00:04.452Z,1029.44
2018-11-03T01:01:04.462Z,1029.44
2018-11-03T01:02:04.547Z,1029.47
2018-11-03T01:03:04.738Z,1029.43
2018-11-03T01:04:04.475Z,1029.41
2018-11-03T01:05:04.613Z,1029.4
2018-11-03T01:06:05.251Z,1029.44
2018-11-03T01:07:04.552Z,1029.4
2018-11-03T01:08:04.846Z,1029.35
2018-11-03T01:09:04.576Z,1029.35
2018-11-03T01:10:04.454Z,1029.29
2018-11-03T01:11:04.461Z,1029.29
2018-11-03T01:12:04.771Z,1029.29
2018-11-03T01:13:04.544Z,1029.28
2018-11-03T01:14:04.417Z,1029.29
2018-11-03T01:15:04.702Z,1029.27
2018-11-03T01:16:04.442Z,1029.22
2018-11-03T01:17:04.426Z,1029.24
2018-11-03T01:18:04.535Z,1029.28
2018-11-03T01:19:04.626Z,1029.24
2018-11-03T01:20:04.600Z,1029.27
2018-11-03T01:21:04.443Z,1029.26
2018-11-03T01:22:04.626Z,1029.27
2018-11-03T01:23:04.522Z,1029.29
2018-11-03T01:24:05.065Z,1029.3
2018-11-03T01:25:04.427Z,1029.32
2018-11-03T01:26:04.427Z,1029.29
2018-11-03T01:27:04.429Z,1029.32
2018-11-03T01:28:04.407Z,1029.35
2018-11-03T01:29:04.522Z,1029.34
2018-11-03T01:30:04.384Z,1029.36
2018-11-03T01:31:04.391Z,1029.35
2018-11-03T01:32:04.384Z,1029.36
2018-11-03T01:33:04.408Z,1029.37
2018-11-03T01:34:04.399Z,1029.33
2018-11-03T01:35:04.424Z,1029.31
2018-11-03T01:36:04.399Z,1029.29
2018-11-03T01:37:04.408Z,1029.26
2018-11-03T01:38:04.416Z,1029.18
2018-11-03T01:39:04.398Z,1029.16
2018-11-03T01:40:04.419Z,1029.14
2018-11-03T01:41:04.400Z,1029.07
2018-11-03T01:42:04.478Z,1029.08
2018-11-03T01:43:04.431Z,1029.05
2018-11-03T01:44:04.380Z,1029.06
2018-11-03T01:45:04.385Z,1029.08
2018-11-03T01:46:04.645Z,1029.06
2018-11-03T01:47:04.746Z,1029.1
2018-11-03T01:48:04.505Z,1029.08
2018-11-03T01:49:04.619Z,1029.07
2018-11-03T01:50:04.963Z,1029.13
2018-11-03T01:51:04.530Z,1029.13
2018-11-03T01:52:04.630Z,1029.09
2018-11-03T01:53:04.717Z,1029.11
2018-11-03T01:54:04.388Z,1029.07
2018-11-03T01:55:04.491Z,1029.09
2018-11-03T01:56:05.002Z,1029.09
2018-11-03T01:57:04.402Z,1029.06
2018-11-03T01:58:04.402Z,1029.08
2018-11-03T01:59:04.324Z,1029.09
2018-11-03T02:00:04.590Z,1029.14
2018-11-03T02:01:04.474Z,1029.11
2018-11-03T02:02:04.376Z,1029.16
2018-11-03T02:03:04.435Z,1029.19
2018-11-03T02:04:04.510Z,1029.13
2018-11-03T02:05:04.380Z,1029.19
2018-11-03T02:06:04.875Z,1029.27
2018-11-03T02:07:04.377Z,1029.24
2018-11-03T02:08:04.450Z,1029.28
2018-11-03T02:09:04.482Z,1029.26
2018-11-03T02:10:05.083Z,1029.25
2018-11-03T02:11:04.477Z,1029.25
2018-11-03T02:12:05.186Z,1029.26
2018-11-03T02:13:04.393Z,1029.3
2018-11-03T02:14:04.395Z,1029.24
2018-11-03T02:15:04.534Z,1029.25
2018-11-03T02:16:04.947Z,1029.25
2018-11-03T02:17:04.607Z,1029.26
2018-11-03T02:18:04.507Z,1029.23
2018-11-03T02:19:04.410Z,1029.21
2018-11-03T02:20:04.922Z,1029.18
2018-11-03T02:21:04.808Z,1029.19
2018-11-03T02:22:04.433Z,1029.16
2018-11-03T02:23:04.459Z,1029.12
2018-11-03T02:24:04.650Z,1029.11
2018-11-03T02:25:04.702Z,1029.16
2018-11-03T02:26:04.462Z,1029.15
2018-11-03T02:27:04.470Z,1029.13
2018-11-03T02:28:04.323Z,1029.16
2018-11-03T02:29:04.433Z,1029.15
2018-11-03T02:30:05.175Z,1029.19
2018-11-03T02:31:04.324Z,1029.15
2018-11-03T02:32:04.715Z,1029.19
2018-11-03T02:33:04.458Z,1029.17
2018-11-03T02:34:04.527Z,1029.18
2018-11-03T02:35:04.325Z,1029.24
2018-11-03T02:36:04.374Z,1029.24
2018-11-03T02:37:04.995Z,1029.26
2018-11-03T02:38:04.646Z,1029.23
2018-11-03T02:39:04.901Z,1029.27
2018-11-03T02:40:04.971Z,1029.31
2018-11-03T02:41:04.744Z,1029.29
2018-11-03T02:42:04.679Z,1029.3
2018-11-03T02:43:04.572Z,1029.32
2018-11-03T02:44:04.477Z,1029.33
2018-11-03T02:45:04.528Z,1029.34
2018-11-03T02:46:04.695Z,1029.33
2018-11-03T02:47:05.054Z,1029.35
2018-11-03T02:48:04.438Z,1029.39
2018-11-03T02:49:04.392Z,1029.41
2018-11-03T02:50:04.745Z,1029.37
2018-11-03T02:51:04.449Z,1029.37
2018-11-03T02:52:04.308Z,1029.36
2018-11-03T02:53:04.683Z,1029.38
2018-11-03T02:54:04.294Z,1029.34
2018-11-03T02:55:04.409Z,1029.34
2018-11-03T02:56:04.369Z,1029.34
2018-11-03T02:57:04.940Z,1029.33
2018-11-03T02:58:04.281Z,1029.31
2018-11-03T02:59:04.392Z,1029.3
2018-11-03T03:00:04.281Z,1029.31
2018-11-03T03:01:04.322Z,1029.27
2018-11-03T03:02:04.302Z,1029.32
2018-11-03T03:03:04.449Z,1029.29
2018-11-03T03:04:04.280Z,1029.3
2018-11-03T03:05:04.333Z,1029.24
2018-11-03T03:06:04.290Z,1029.22
2018-11-03T03:07:04.538Z,1029.22
2018-11-03T03:08:04.251Z,1029.24
2018-11-03T03:09:04.395Z,1029.26
2018-11-03T03:10:04.322Z,1029.22
2018-11-03T03:11:04.269Z,1029.28
2018-11-03T03:12:04.311Z,1029.29
2018-11-03T03:13:04.356Z,1029.31
2018-11-03T03:14:04.333Z,1029.28
2018-11-03T03:15:04.256Z,1029.26
2018-11-03T03:16:04.236Z,1029.24
2018-11-03T03:17:04.556Z,1029.27
2018-11-03T03:18:04.251Z,1029.26
2018-11-03T03:19:04.308Z,1029.26
2018-11-03T03:20:04.384Z,1029.24
2018-11-03T03:21:04.299Z,1029.21
2018-11-03T03:22:04.307Z,1029.26
2018-11-03T03:23:04.350Z,1029.29
2018-11-03T03:24:04.255Z,1029.25
2018-11-03T03:25:04.740Z,1029.28
2018-11-03T03:26:04.967Z,1029.29
2018-11-03T03:27:04.867Z,1029.26
2018-11-03T03:28:04.389Z,1029.27
2018-11-03T03:29:04.840Z,1029.21
2018-11-03T03:30:04.307Z,1029.22
2018-11-03T03:31:04.261Z,1029.23
2018-11-03T03:32:04.373Z,1029.22
2018-11-03T03:33:04.629Z,1029.23
2018-11-03T03:34:04.226Z,1029.26
2018-11-03T03:35:04.361Z,1029.22
2018-11-03T03:36:04.424Z,1029.24
2018-11-03T03:37:04.377Z,1029.26
2018-11-03T03:38:04.562Z,1029.3
2018-11-03T03:39:04.240Z,1029.29
2018-11-03T03:40:04.654Z,1029.27
2018-11-03T03:41:04.254Z,1029.29
2018-11-03T03:42:04.514Z,1029.25
2018-11-03T03:43:04.284Z,1029.27
2018-11-03T03:44:04.603Z,1029.28
2018-11-03T03:45:04.515Z,1029.29
2018-11-03T03:46:05.051Z,1029.29
2018-11-03T03:47:04.341Z,1029.34
2018-11-03T03:48:04.194Z,1029.33
2018-11-03T03:49:04.423Z,1029.38
2018-11-03T03:50:04.259Z,1029.38
2018-11-03T03:51:04.227Z,1029.41
2018-11-03T03:52:05.050Z,1029.44
2018-11-03T03:53:04.254Z,1029.42
2018-11-03T03:54:04.569Z,1029.43
2018-11-03T03:55:04.475Z,1029.42
2018-11-03T03:56:04.367Z,1029.41
2018-11-03T03:57:04.581Z,1029.4
2018-11-03T03:58:04.455Z,1029.45
2018-11-03T03:59:04.601Z,1029.42
2018-11-03T04:00:04.294Z,1029.47
2018-11-03T04:01:04.583Z,1029.52
2018-11-03T04:02:04.175Z,1029.55
2018-11-03T04:03:04.517Z,1029.58
2018-11-03T04:04:04.252Z,1029.59
2018-11-03T04:05:04.203Z,1029.57
2018-11-03T04:06:04.676Z,1029.57
2018-11-03T04:07:04.248Z,1029.61
2018-11-03T04:08:04.187Z,1029.57
2018-11-03T04:09:04.211Z,1029.67
2018-11-03T04:10:04.603Z,1029.65
2018-11-03T04:11:04.247Z,1029.63
2018-11-03T04:12:04.214Z,1029.6
2018-11-03T04:13:04.173Z,1029.62
2018-11-03T04:14:04.167Z,1029.54
2018-11-03T04:15:04.574Z,1029.57
2018-11-03T04:16:04.572Z,1029.54
2018-11-03T04:17:04.201Z,1029.55
2018-11-03T04:18:04.184Z,1029.53
2018-11-03T04:19:04.185Z,1029.48
2018-11-03T04:20:04.328Z,1029.51
2018-11-03T04:21:04.435Z,1029.55
2018-11-03T04:22:04.214Z,1029.54
2018-11-03T04:23:04.315Z,1029.59
2018-11-03T04:24:05.013Z,1029.55
2018-11-03T04:25:04.263Z,1029.56
2018-11-03T04:26:04.816Z,1029.52
2018-11-03T04:27:04.404Z,1029.54
2018-11-03T04:28:04.554Z,1029.56
2018-11-03T04:29:04.212Z,1029.5
2018-11-03T04:30:04.177Z,1029.55
2018-11-03T04:31:04.130Z,1029.53
2018-11-03T04:32:04.172Z,1029.52
2018-11-03T04:33:04.161Z,1029.54
2018-11-03T04:34:04.225Z,1029.52
2018-11-03T04:35:04.239Z,1029.56
2018-11-03T04:36:04.274Z,1029.53
2018-11-03T04:37:04.234Z,1029.52
2018-11-03T04:38:04.273Z,1029.56
2018-11-03T04:39:04.144Z,1029.54
2018-11-03T04:40:04.237Z,1029.45
2018-11-03T04:41:04.150Z,1029.45
2018-11-03T04:42:04.209Z,1029.47
2018-11-03T04:43:04.139Z,1029.41
2018-11-03T04:44:04.162Z,1029.38
2018-11-03T04:45:04.296Z,1029.39
2018-11-03T04:46:04.134Z,1029.34
2018-11-03T04:47:04.154Z,1029.35
2018-11-03T04:48:04.169Z,1029.38
2018-11-03T04:49:04.118Z,1029.37
2018-11-03T04:50:04.166Z,1029.39
2018-11-03T04:51:04.136Z,1029.41
2018-11-03T04:52:04.147Z,1029.35
2018-11-03T04:53:04.681Z,1029.32
2018-11-03T04:54:04.256Z,1029.29
2018-11-03T04:55:04.559Z,1029.32
2018-11-03T04:56:04.503Z,1029.28
2018-11-03T04:57:04.264Z,1029.3
2018-11-03T04:58:04.514Z,1029.27
2018-11-03T04:59:04.091Z,1029.28
2018-11-03T05:00:04.604Z,1029.24
2018-11-03T05:01:04.206Z,1029.26
2018-11-03T05:02:04.168Z,1029.24
2018-11-03T05:03:04.332Z,1029.24
2018-11-03T05:04:04.336Z,1029.34
2018-11-03T05:05:04.368Z,1029.32
2018-11-03T05:06:04.473Z,1029.34
2018-11-03T05:07:04.128Z,1029.38
2018-11-03T05:08:04.327Z,1029.4
2018-11-03T05:09:04.150Z,1029.37
2018-11-03T05:10:05.117Z,1029.37
2018-11-03T05:11:04.957Z,1029.34
2018-11-03T05:12:04.112Z,1029.31
2018-11-03T05:13:04.085Z,1029.32
2018-11-03T05:14:04.287Z,1029.33
2018-11-03T05:15:04.399Z,1029.31
2018-11-03T05:16:04.148Z,1029.34
2018-11-03T05:17:04.518Z,1029.39
2018-11-03T05:18:04.310Z,1029.34
2018-11-03T05:19:04.093Z,1029.39
2018-11-03T05:20:04.190Z,1029.46
2018-11-03T05:21:04.204Z,1029.4
2018-11-03T05:22:04.181Z,1029.44
2018-11-03T05:23:04.341Z,1029.41
2018-11-03T05:24:04.067Z,1029.4
2018-11-03T05:25:04.213Z,1029.36
2018-11-03T05:26:04.163Z,1029.37
2018-11-03T05:27:04.074Z,1029.34
2018-11-03T05:28:04.055Z,1029.38
2018-11-03T05:29:04.149Z,1029.37
2018-11-03T05:30:04.234Z,1029.39
2018-11-03T05:31:04.350Z,1029.44
2018-11-03T05:32:04.151Z,1029.4
2018-11-03T05:33:04.045Z,1029.42
2018-11-03T05:34:04.220Z,1029.39
2018-11-03T05:35:04.468Z,1029.37
2018-11-03T05:36:04.194Z,1029.37
2018-11-03T05:37:04.039Z,1029.36
2018-11-03T05:38:04.078Z,1029.43
2018-11-03T05:39:04.281Z,1029.39
2018-11-03T05:40:04.163Z,1029.39
2018-11-03T05:41:04.242Z,1029.41
2018-11-03T05:42:04.583Z,1029.42
2018-11-03T05:43:04.186Z,1029.42
2018-11-03T05:44:04.337Z,1029.45
2018-11-03T05:45:04.079Z,1029.41
2018-11-03T05:46:04.557Z,1029.41
2018-11-03T05:47:04.202Z,1029.43
2018-11-03T05:48:04.335Z,1029.41
2018-11-03T05:49:04.425Z,1029.43
2018-11-03T05:50:04.086Z,1029.45
2018-11-03T05:51:04.760Z,1029.44
2018-11-03T05:52:04.351Z,1029.51
2018-11-03T05:53:04.148Z,1029.48
2018-11-03T05:54:04.177Z,1029.48
2018-11-03T05:55:04.416Z,1029.49
2018-11-03T05:56:04.637Z,1029.46
2018-11-03T05:57:04.493Z,1029.47
2018-11-03T05:58:04.885Z,1029.49
2018-11-03T05:59:04.501Z,1029.51
2018-11-03T06:00:04.151Z,1029.47
2018-11-03T06:01:04.089Z,1029.52
2018-11-03T06:02:04.342Z,1029.52
2018-11-03T06:03:04.410Z,1029.52
2018-11-03T06:04:04.270Z,1029.45
2018-11-03T06:05:04.081Z,1029.47
2018-11-03T06:06:04.374Z,1029.48
2018-11-03T06:07:04.029Z,1029.42
2018-11-03T06:08:04.078Z,1029.5
2018-11-03T06:09:04.035Z,1029.46
2018-11-03T06:10:04.082Z,1029.47
2018-11-03T06:11:04.031Z,1029.48
2018-11-03T06:12:03.998Z,1029.45
2018-11-03T06:13:04.102Z,1029.42
2018-11-03T06:14:04.348Z,1029.39
2018-11-03T06:15:04.249Z,1029.42
2018-11-03T06:16:04.234Z,1029.46
2018-11-03T06:17:04.002Z,1029.43
2018-11-03T06:18:04.173Z,1029.48
2018-11-03T06:19:04.012Z,1029.49
2018-11-03T06:20:04.090Z,1029.5
2018-11-03T06:21:04.011Z,1029.43
2018-11-03T06:22:03.993Z,1029.45
2018-11-03T06:23:04.125Z,1029.44
2018-11-03T06:24:04.020Z,1029.46
2018-11-03T06:25:04.193Z,1029.44
2018-11-03T06:26:04.433Z,1029.51
2018-11-03T06:27:04.089Z,1029.5
2018-11-03T06:28:04.423Z,1029.56
2018-11-03T06:29:04.420Z,1029.53
2018-11-03T06:30:04.114Z,1029.54
2018-11-03T06:31:04.038Z,1029.55
2018-11-03T06:32:04.317Z,1029.55
2018-11-03T06:33:04.141Z,1029.56
2018-11-03T06:34:04.086Z,1029.54
2018-11-03T06:35:04.809Z,1029.54
2018-11-03T06:36:04.096Z,1029.54
2018-11-03T06:37:04.381Z,1029.57
2018-11-03T06:38:04.038Z,1029.53
2018-11-03T06:39:04.428Z,1029.56
2018-11-03T06:40:04.398Z,1029.61
2018-11-03T06:41:04.066Z,1029.57
2018-11-03T06:42:04.037Z,1029.6
2018-11-03T06:43:04.040Z,1029.55
2018-11-03T06:44:04.072Z,1029.58
2018-11-03T06:45:04.037Z,1029.55
2018-11-03T06:46:04.138Z,1029.53
2018-11-03T06:47:04.251Z,1029.52
2018-11-03T06:48:04.347Z,1029.52
2018-11-03T06:49:04.013Z,1029.55
2018-11-03T06:50:04.357Z,1029.57
2018-11-03T06:51:04.007Z,1029.62
2018-11-03T06:52:04.157Z,1029.64
2018-11-03T06:53:04.179Z,1029.62
2018-11-03T06:54:04.189Z,1029.67
2018-11-03T06:55:04.297Z,1029.57
2018-11-03T06:56:04.059Z,1029.63
2018-11-03T06:57:04.424Z,1029.63
2018-11-03T06:58:04.078Z,1029.6
2018-11-03T06:59:03.955Z,1029.59
2018-11-03T07:00:04.222Z,1029.6
2018-11-03T07:01:04.067Z,1029.59
2018-11-03T07:02:04.285Z,1029.6
2018-11-03T07:03:04.022Z,1029.61
2018-11-03T07:04:04.075Z,1029.6
2018-11-03T07:05:04.133Z,1029.61
2018-11-03T07:06:04.303Z,1029.53
2018-11-03T07:07:03.990Z,1029.55
2018-11-03T07:08:04.012Z,1029.56
2018-11-03T07:09:04.089Z,1029.57
2018-11-03T07:10:04.098Z,1029.55
2018-11-03T07:11:03.962Z,1029.52
2018-11-03T07:12:04.450Z,1029.57
2018-11-03T07:13:04.224Z,1029.6
2018-11-03T07:14:03.959Z,1029.64
2018-11-03T07:15:04.514Z,1029.63
2018-11-03T07:16:04.010Z,1029.66
2018-11-03T07:17:04.470Z,1029.7
2018-11-03T07:18:03.923Z,1029.69
2018-11-03T07:19:03.921Z,1029.73
2018-11-03T07:20:03.905Z,1029.77
2018-11-03T07:21:03.971Z,1029.74
2018-11-03T07:22:04.183Z,1029.8
2018-11-03T07:23:03.927Z,1029.81
2018-11-03T07:24:04.267Z,1029.88
2018-11-03T07:25:04.235Z,1029.85
2018-11-03T07:26:04.553Z,1029.84
2018-11-03T07:27:04.017Z,1029.83
2018-11-03T07:28:04.119Z,1029.85
2018-11-03T07:29:04.023Z,1029.79
2018-11-03T07:30:04.124Z,1029.81
2018-11-03T07:31:04.182Z,1029.8
2018-11-03T07:32:04.014Z,1029.8
2018-11-03T07:33:04.053Z,1029.83
2018-11-03T07:34:04.158Z,1029.86
2018-11-03T07:35:04.314Z,1029.88
2018-11-03T07:36:03.938Z,1029.86
2018-11-03T07:37:04.174Z,1029.85
2018-11-03T07:38:03.953Z,1029.88
2018-11-03T07:39:03.948Z,1029.84
2018-11-03T07:40:03.995Z,1029.83
2018-11-03T07:41:04.320Z,1029.81
2018-11-03T07:42:03.955Z,1029.81
2018-11-03T07:43:03.988Z,1029.8
2018-11-03T07:44:03.947Z,1029.84
2018-11-03T07:45:04.269Z,1029.84
2018-11-03T07:46:03.977Z,1029.84
2018-11-03T07:47:03.985Z,1029.82
2018-11-03T07:48:04.184Z,1029.84
2018-11-03T07:49:04.783Z,1029.89
2018-11-03T07:50:03.907Z,1029.86
2018-11-03T07:51:03.974Z,1029.78
2018-11-03T07:52:04.026Z,1029.81
2018-11-03T07:53:04.189Z,1029.85
2018-11-03T07:54:03.964Z,1029.83
2018-11-03T07:55:04.444Z,1029.8
2018-11-03T07:56:03.927Z,1029.83
2018-11-03T07:57:03.948Z,1029.82
2018-11-03T07:58:03.858Z,1029.83
2018-11-03T07:59:04.132Z,1029.77
2018-11-03T08:00:03.954Z,1029.79
2018-11-03T08:01:04.142Z,1029.83
2018-11-03T08:02:04.043Z,1029.8
2018-11-03T08:03:03.945Z,1029.84
2018-11-03T08:04:04.379Z,1029.86
2018-11-03T08:05:04.220Z,1029.8
2018-11-03T08:06:03.980Z,1029.83
2018-11-03T08:07:04.183Z,1029.81
2018-11-03T08:08:03.943Z,1029.81
2018-11-03T08:09:04.248Z,1029.8
2018-11-03T08:10:04.015Z,1029.83
2018-11-03T08:11:04.515Z,1029.84
2018-11-03T08:12:04.115Z,1029.82
2018-11-03T08:13:04.147Z,1029.82
2018-11-03T08:14:04.366Z,1029.74
2018-11-03T08:15:04.004Z,1029.69
2018-11-03T08:16:04.195Z,1029.65
2018-11-03T08:17:04.245Z,1029.68
2018-11-03T08:18:04.010Z,1029.69
2018-11-03T08:19:04.157Z,1029.67
2018-11-03T08:20:04.041Z,1029.66
2018-11-03T08:21:03.828Z,1029.69
2018-11-03T08:22:04.006Z,1029.6
2018-11-03T08:23:04.026Z,1029.63
2018-11-03T08:24:04.978Z,1029.56
2018-11-03T08:25:03.831Z,1029.53
2018-11-03T08:26:03.994Z,1029.52
2018-11-03T08:27:03.991Z,1029.6
2018-11-03T08:28:03.904Z,1029.66
2018-11-03T08:29:04.013Z,1029.68
2018-11-03T08:30:04.267Z,1029.67
2018-11-03T08:31:03.974Z,1029.69
2018-11-03T08:32:03.892Z,1029.76
2018-11-03T08:33:04.401Z,1029.76
2018-11-03T08:34:04.308Z,1029.77
2018-11-03T08:35:04.059Z,1029.74
2018-11-03T08:36:04.062Z,1029.75
2018-11-03T08:37:03.992Z,1029.74
2018-11-03T08:38:04.285Z,1029.75
2018-11-03T08:39:03.965Z,1029.75
2018-11-03T08:40:04.148Z,1029.73
2018-11-03T08:41:03.896Z,1029.76
2018-11-03T08:42:03.935Z,1029.75
2018-11-03T08:43:04.021Z,1029.75
2018-11-03T08:44:04.131Z,1029.74
2018-11-03T08:45:03.979Z,1029.71
2018-11-03T08:46:03.946Z,1029.72
2018-11-03T08:47:03.867Z,1029.74
2018-11-03T08:48:04.181Z,1029.74
2018-11-03T08:49:04.484Z,1029.71
2018-11-03T08:50:03.792Z,1029.74
2018-11-03T08:51:03.997Z,1029.71
2018-11-03T08:52:03.773Z,1029.65
2018-11-03T08:53:04.081Z,1029.63
2018-11-03T08:54:03.824Z,1029.6
2018-11-03T08:55:04.442Z,1029.62
2018-11-03T08:56:03.800Z,1029.58
2018-11-03T08:57:03.786Z,1029.61
2018-11-03T08:58:03.915Z,1029.61
2018-11-03T08:59:03.847Z,1029.65
2018-11-03T09:00:04.142Z,1029.65
2018-11-03T09:01:03.855Z,1029.64
2018-11-03T09:02:03.909Z,1029.64
2018-11-03T09:03:04.058Z,1029.6
2018-11-03T09:04:03.896Z,1029.55
2018-11-03T09:05:04.209Z,1029.51
2018-11-03T09:06:03.794Z,1029.54
2018-11-03T09:07:04.664Z,1029.5
2018-11-03T09:08:03.772Z,1029.51
2018-11-03T09:09:34.504Z,1029.42
2018-11-03T09:10:03.786Z,1029.43
2018-11-03T09:11:04.114Z,1029.4
2018-11-03T09:12:03.773Z,1029.39
2018-11-03T09:13:03.969Z,1029.39
2018-11-03T09:14:03.751Z,1029.42
2018-11-03T09:15:05.340Z,1029.4
2018-11-03T09:16:03.804Z,1029.41
2018-11-03T09:17:04.158Z,1029.34
2018-11-03T09:18:04.068Z,1029.36
2018-11-03T09:19:03.771Z,1029.4
2018-11-03T09:20:03.761Z,1029.35
2018-11-03T09:21:03.766Z,1029.37
2018-11-03T09:22:03.763Z,1029.42
2018-11-03T09:23:03.746Z,1029.41
2018-11-03T09:24:03.804Z,1029.36
2018-11-03T09:25:03.781Z,1029.34
2018-11-03T09:26:03.768Z,1029.3
2018-11-03T09:27:03.798Z,1029.3
2018-11-03T09:28:03.787Z,1029.28
2018-11-03T09:29:03.913Z,1029.28
2018-11-03T09:30:03.764Z,1029.28
2018-11-03T09:31:03.832Z,1029.26
2018-11-03T09:32:04.246Z,1029.23
2018-11-03T09:33:03.791Z,1029.2
2018-11-03T09:34:03.740Z,1029.19
2018-11-03T09:35:03.739Z,1029.2
2018-11-03T09:36:04.160Z,1029.15
2018-11-03T09:37:03.865Z,1029.13
2018-11-03T09:38:03.839Z,1029.16
2018-11-03T09:39:04.243Z,1029.16
2018-11-03T09:40:03.963Z,1029.21
2018-11-03T09:41:03.782Z,1029.14
2018-11-03T09:42:03.776Z,1029.16
2018-11-03T09:43:04.277Z,1029.14
2018-11-03T09:44:03.753Z,1029.16
2018-11-03T09:45:04.325Z,1029.15
2018-11-03T09:46:04.384Z,1029.15
2018-11-03T09:47:03.926Z,1029.12
2018-11-03T09:48:04.057Z,1029.09
2018-11-03T09:49:04.302Z,1029.13
2018-11-03T09:50:03.770Z,1029.1
2018-11-03T09:51:03.920Z,1029.16
2018-11-03T09:52:03.712Z,1029.15
2018-11-03T09:53:03.710Z,1029.2
2018-11-03T09:54:03.868Z,1029.18
2018-11-03T09:55:03.741Z,1029.14
2018-11-03T09:56:03.941Z,1029.14
2018-11-03T09:57:04.023Z,1029.06
2018-11-03T09:58:03.911Z,1029.12
2018-11-03T09:59:03.743Z,1029.06
2018-11-03T10:00:04.516Z,1029.03
2018-11-03T10:01:04.040Z,1029.06
2018-11-03T10:02:03.777Z,1029.03
2018-11-03T10:03:04.045Z,1029.07
2018-11-03T10:04:04.269Z,1029.09
2018-11-03T10:05:03.964Z,1029.05
2018-11-03T10:06:03.920Z,1029.05
2018-11-03T10:07:03.679Z,1029.06
2018-11-03T10:08:03.673Z,1029.03
2018-11-03T10:09:03.997Z,1029.02
2018-11-03T10:10:03.721Z,1029.03
2018-11-03T10:11:03.654Z,1029.03
2018-11-03T10:12:03.853Z,1029
2018-11-03T10:13:03.718Z,1028.94
2018-11-03T10:14:03.716Z,1028.94
2018-11-03T10:15:03.690Z,1028.9
2018-11-03T10:16:04.203Z,1028.88
2018-11-03T10:17:04.484Z,1028.9
2018-11-03T10:18:03.678Z,1028.93
2018-11-03T10:19:04.066Z,1028.91
2018-11-03T10:20:03.962Z,1028.92
2018-11-03T10:21:03.705Z,1028.86
2018-11-03T10:22:04.099Z,1028.91
2018-11-03T10:23:04.031Z,1028.89
2018-11-03T10:24:03.779Z,1028.88
2018-11-03T10:25:03.944Z,1028.82
2018-11-03T10:26:03.817Z,1028.81
2018-11-03T10:27:03.783Z,1028.79
2018-11-03T10:28:03.792Z,1028.78
2018-11-03T10:29:03.737Z,1028.81
2018-11-03T10:30:03.731Z,1028.75
2018-11-03T10:31:03.720Z,1028.78
2018-11-03T10:32:03.667Z,1028.75
2018-11-03T10:33:03.712Z,1028.8
2018-11-03T10:34:04.027Z,1028.77
2018-11-03T10:35:03.978Z,1028.81
2018-11-03T10:36:03.899Z,1028.83
2018-11-03T10:37:03.832Z,1028.81
2018-11-03T10:38:03.736Z,1028.73
2018-11-03T10:39:03.660Z,1028.75
2018-11-03T10:40:03.629Z,1028.72
2018-11-03T10:41:03.772Z,1028.72
2018-11-03T10:42:04.099Z,1028.74
2018-11-03T10:43:03.679Z,1028.7
2018-11-03T10:44:03.628Z,1028.68
2018-11-03T10:45:03.610Z,1028.71
2018-11-03T10:46:03.693Z,1028.66
2018-11-03T10:47:03.821Z,1028.64
2018-11-03T10:48:03.603Z,1028.63
2018-11-03T10:49:03.656Z,1028.63
2018-11-03T10:50:03.618Z,1028.6
2018-11-03T10:51:03.648Z,1028.66
2018-11-03T10:52:03.638Z,1028.66
2018-11-03T10:53:03.699Z,1028.68
2018-11-03T10:54:03.630Z,1028.64
2018-11-03T10:55:03.619Z,1028.64
2018-11-03T10:56:03.611Z,1028.59
2018-11-03T10:57:03.951Z,1028.53
2018-11-03T10:58:03.604Z,1028.54
2018-11-03T10:59:03.613Z,1028.51
2018-11-03T11:00:03.656Z,1028.52
2018-11-03T11:01:03.577Z,1028.51
2018-11-03T11:02:03.874Z,1028.5
2018-11-03T11:03:03.610Z,1028.48
2018-11-03T11:04:03.720Z,1028.49
2018-11-03T11:05:03.703Z,1028.48
2018-11-03T11:06:03.885Z,1028.49
2018-11-03T11:07:04.248Z,1028.45
2018-11-03T11:08:03.782Z,1028.45
2018-11-03T11:09:03.988Z,1028.49
2018-11-03T11:10:03.599Z,1028.43
2018-11-03T11:11:03.784Z,1028.43
2018-11-03T11:12:04.247Z,1028.44
2018-11-03T11:13:03.575Z,1028.34
2018-11-03T11:14:04.152Z,1028.33
2018-11-03T11:15:03.636Z,1028.34
2018-11-03T11:16:03.812Z,1028.32
2018-11-03T11:17:04.267Z,1028.34
2018-11-03T11:18:03.622Z,1028.29
2018-11-03T11:19:03.649Z,1028.27
2018-11-03T11:20:03.656Z,1028.25
2018-11-03T11:21:03.617Z,1028.25
2018-11-03T11:22:03.691Z,1028.26
2018-11-03T11:23:03.574Z,1028.32
2018-11-03T11:24:03.866Z,1028.28
2018-11-03T11:25:03.965Z,1028.22
2018-11-03T11:26:03.564Z,1028.21
2018-11-03T11:27:04.306Z,1028.2
2018-11-03T11:28:03.687Z,1028.22
2018-11-03T11:29:03.650Z,1028.2
2018-11-03T11:30:03.703Z,1028.15
2018-11-03T11:31:03.609Z,1028.13
2018-11-03T11:32:03.578Z,1028.09
2018-11-03T11:33:04.379Z,1028.07
2018-11-03T11:34:03.998Z,1028.05
2018-11-03T11:35:03.598Z,1028.06
2018-11-03T11:36:03.606Z,1028.07
2018-11-03T11:37:03.830Z,1028.03
2018-11-03T11:38:03.656Z,1027.98
2018-11-03T11:39:04.333Z,1027.98
2018-11-03T11:40:03.608Z,1027.97
2018-11-03T11:41:03.796Z,1027.98
2018-11-03T11:42:03.806Z,1027.95
2018-11-03T11:43:03.687Z,1027.93
2018-11-03T11:44:03.657Z,1027.95
2018-11-03T11:45:03.606Z,1027.88
2018-11-03T11:46:03.603Z,1027.88
2018-11-03T11:47:03.789Z,1027.92
2018-11-03T11:48:03.656Z,1027.91
2018-11-03T11:49:18.432Z,1027.9
2018-11-03T11:50:03.563Z,1027.88
2018-11-03T11:51:03.612Z,1027.89
2018-11-03T11:52:03.878Z,1027.9
2018-11-03T11:53:03.723Z,1027.87
2018-11-03T11:54:04.009Z,1027.87
2018-11-03T11:55:04.115Z,1027.84
2018-11-03T11:56:03.997Z,1027.83
2018-11-03T11:57:05.324Z,1027.84
2018-11-03T11:58:06.928Z,1027.84
2018-11-03T11:59:03.830Z,1027.83
2018-11-03T12:00:03.590Z,1027.81
2018-11-03T12:01:03.570Z,1027.76
2018-11-03T12:02:03.700Z,1027.73
2018-11-03T12:03:03.659Z,1027.68
2018-11-03T12:04:03.631Z,1027.62
2018-11-03T12:05:03.608Z,1027.59
2018-11-03T12:06:03.749Z,1027.59
2018-11-03T12:07:03.665Z,1027.64